sensor_id;sensor_type;location;lat;lon;timestamp;temperature;humidity
74657;DHT22;63185;45.642;13.764;2024-03-02T00:02:19;14.10;74.00
74657;DHT22;63185;45.642;13.764;2024-03-02T00:04:45;14.00;74.20
74657;DHT22;63185;45.642;13.764;2024-03-02T00:07:14;14.00;74.00
74657;DHT22;63185;45.642;13.764;2024-03-02T00:09:40;14.00;73.80
74657;DHT22;63185;45.642;13.764;2024-03-02T00:12:06;14.10;73.50
74657;DHT22;63185;45.642;13.764;2024-03-02T00:14:31;14.10;73.70
74657;DHT22;63185;45.642;13.764;2024-03-02T00:16:57;14.10;73.70
74657;DHT22;63185;45.642;13.764;2024-03-02T00:19:24;14.10;73.60
74657;DHT22;63185;45.642;13.764;2024-03-02T00:21:50;14.10;73.00
74657;DHT22;63185;45.642;13.764;2024-03-02T00:24:34;14.10;73.00
74657;DHT22;63185;45.642;13.764;2024-03-02T00:27:01;14.10;73.40
74657;DHT22;63185;45.642;13.764;2024-03-02T00:29:29;14.10;74.30
74657;DHT22;63185;45.642;13.764;2024-03-02T00:31:58;14.10;74.80
74657;DHT22;63185;45.642;13.764;2024-03-02T00:34:24;14.10;75.20
74657;DHT22;63185;45.642;13.764;2024-03-02T00:36:50;14.00;75.60
74657;DHT22;63185;45.642;13.764;2024-03-02T00:39:16;13.90;76.60
74657;DHT22;63185;45.642;13.764;2024-03-02T00:41:43;13.90;77.00
74657;DHT22;63185;45.642;13.764;2024-03-02T00:44:11;13.80;77.20
74657;DHT22;63185;45.642;13.764;2024-03-02T00:46:41;13.80;77.00
74657;DHT22;63185;45.642;13.764;2024-03-02T00:51:47;13.80;77.00
74657;DHT22;63185;45.642;13.764;2024-03-02T00:54:23;13.80;76.90
74657;DHT22;63185;45.642;13.764;2024-03-02T00:56:54;13.70;77.10
74657;DHT22;63185;45.642;13.764;2024-03-02T00:59:22;13.80;76.70
74657;DHT22;63185;45.642;13.764;2024-03-02T01:01:48;13.70;76.90
74657;DHT22;63185;45.642;13.764;2024-03-02T01:04:15;13.70;77.70
74657;DHT22;63185;45.642;13.764;2024-03-02T01:06:44;13.80;77.60
74657;DHT22;63185;45.642;13.764;2024-03-02T01:09:09;13.80;77.10
74657;DHT22;63185;45.642;13.764;2024-03-02T01:11:35;13.80;76.90
74657;DHT22;63185;45.642;13.764;2024-03-02T01:14:01;13.70;76.50
74657;DHT22;63185;45.642;13.764;2024-03-02T01:16:26;13.60;76.90
74657;DHT22;63185;45.642;13.764;2024-03-02T01:18:52;13.60;76.70
74657;DHT22;63185;45.642;13.764;2024-03-02T01:21:18;13.60;76.80
74657;DHT22;63185;45.642;13.764;2024-03-02T01:23:43;13.60;76.60
74657;DHT22;63185;45.642;13.764;2024-03-02T01:26:09;13.60;77.00
74657;DHT22;63185;45.642;13.764;2024-03-02T01:28:35;13.60;77.20
74657;DHT22;63185;45.642;13.764;2024-03-02T01:31:00;13.60;77.00
74657;DHT22;63185;45.642;13.764;2024-03-02T01:33:27;13.60;77.20
74657;DHT22;63185;45.642;13.764;2024-03-02T01:35:53;13.60;77.20
74657;DHT22;63185;45.642;13.764;2024-03-02T01:38:18;13.60;76.70
74657;DHT22;63185;45.642;13.764;2024-03-02T01:40:44;13.70;76.60
74657;DHT22;63185;45.642;13.764;2024-03-02T01:43:10;13.60;77.00
74657;DHT22;63185;45.642;13.764;2024-03-02T01:45:36;13.70;77.10
74657;DHT22;63185;45.642;13.764;2024-03-02T01:48:04;13.60;76.80
74657;DHT22;63185;45.642;13.764;2024-03-02T01:50:32;13.60;76.70
74657;DHT22;63185;45.642;13.764;2024-03-02T01:52:59;13.70;76.40
74657;DHT22;63185;45.642;13.764;2024-03-02T01:55:25;13.70;76.50
74657;DHT22;63185;45.642;13.764;2024-03-02T01:57:51;13.60;77.10
74657;DHT22;63185;45.642;13.764;2024-03-02T02:00:18;13.60;77.30
74657;DHT22;63185;45.642;13.764;2024-03-02T02:02:45;13.60;76.80
74657;DHT22;63185;45.642;13.764;2024-03-02T02:05:11;13.60;75.50
74657;DHT22;63185;45.642;13.764;2024-03-02T02:07:37;13.60;76.40
74657;DHT22;63185;45.642;13.764;2024-03-02T02:10:03;13.60;76.50
74657;DHT22;63185;45.642;13.764;2024-03-02T02:12:29;13.60;75.60
74657;DHT22;63185;45.642;13.764;2024-03-02T02:14:55;13.60;75.20
74657;DHT22;63185;45.642;13.764;2024-03-02T02:17:21;13.70;75.70
74657;DHT22;63185;45.642;13.764;2024-03-02T02:19:46;13.70;75.30
74657;DHT22;63185;45.642;13.764;2024-03-02T02:22:13;13.60;76.00
74657;DHT22;63185;45.642;13.764;2024-03-02T02:24:42;13.60;74.60
74657;DHT22;63185;45.642;13.764;2024-03-02T02:27:08;13.60;74.20
74657;DHT22;63185;45.642;13.764;2024-03-02T02:29:35;13.60;75.00
74657;DHT22;63185;45.642;13.764;2024-03-02T02:32:01;13.60;74.90
74657;DHT22;63185;45.642;13.764;2024-03-02T02:34:27;13.60;74.80
74657;DHT22;63185;45.642;13.764;2024-03-02T02:36:53;13.70;74.40
74657;DHT22;63185;45.642;13.764;2024-03-02T02:39:21;13.70;74.50
74657;DHT22;63185;45.642;13.764;2024-03-02T02:41:47;13.70;73.70
74657;DHT22;63185;45.642;13.764;2024-03-02T02:44:13;13.80;73.60
74657;DHT22;63185;45.642;13.764;2024-03-02T02:46:40;13.70;74.60
74657;DHT22;63185;45.642;13.764;2024-03-02T02:49:05;13.70;74.60
74657;DHT22;63185;45.642;13.764;2024-03-02T02:51:31;13.70;75.00
74657;DHT22;63185;45.642;13.764;2024-03-02T02:53:57;13.70;74.70
74657;DHT22;63185;45.642;13.764;2024-03-02T02:56:23;13.70;73.90
74657;DHT22;63185;45.642;13.764;2024-03-02T02:58:48;13.80;74.20
74657;DHT22;63185;45.642;13.764;2024-03-02T03:01:15;13.70;73.80
74657;DHT22;63185;45.642;13.764;2024-03-02T03:03:45;13.70;72.90
74657;DHT22;63185;45.642;13.764;2024-03-02T03:06:11;13.70;73.00
74657;DHT22;63185;45.642;13.764;2024-03-02T03:08:37;13.70;72.70
74657;DHT22;63185;45.642;13.764;2024-03-02T03:11:04;13.80;72.90
74657;DHT22;63185;45.642;13.764;2024-03-02T03:13:33;13.70;74.10
74657;DHT22;63185;45.642;13.764;2024-03-02T03:15:59;13.70;73.60
74657;DHT22;63185;45.642;13.764;2024-03-02T03:18:25;13.70;74.20
74657;DHT22;63185;45.642;13.764;2024-03-02T03:20:51;13.60;74.30
74657;DHT22;63185;45.642;13.764;2024-03-02T03:23:16;13.50;74.40
74657;DHT22;63185;45.642;13.764;2024-03-02T03:25:43;13.60;74.10
74657;DHT22;63185;45.642;13.764;2024-03-02T03:28:09;13.60;74.50
74657;DHT22;63185;45.642;13.764;2024-03-02T03:30:38;13.60;74.80
74657;DHT22;63185;45.642;13.764;2024-03-02T03:33:05;13.60;75.30
74657;DHT22;63185;45.642;13.764;2024-03-02T03:35:32;13.60;74.70
74657;DHT22;63185;45.642;13.764;2024-03-02T03:37:57;13.60;75.20
74657;DHT22;63185;45.642;13.764;2024-03-02T03:40:23;13.60;74.60
74657;DHT22;63185;45.642;13.764;2024-03-02T03:42:49;13.60;74.80
74657;DHT22;63185;45.642;13.764;2024-03-02T03:45:16;13.60;75.20
74657;DHT22;63185;45.642;13.764;2024-03-02T03:47:42;13.60;74.30
74657;DHT22;63185;45.642;13.764;2024-03-02T03:50:08;13.60;74.60
74657;DHT22;63185;45.642;13.764;2024-03-02T03:52:33;13.60;74.40
74657;DHT22;63185;45.642;13.764;2024-03-02T03:55:00;13.60;73.90
74657;DHT22;63185;45.642;13.764;2024-03-02T03:57:26;13.60;74.30
74657;DHT22;63185;45.642;13.764;2024-03-02T03:59:52;13.60;73.30
74657;DHT22;63185;45.642;13.764;2024-03-02T04:02:18;13.70;72.90
74657;DHT22;63185;45.642;13.764;2024-03-02T04:04:43;13.70;73.90
74657;DHT22;63185;45.642;13.764;2024-03-02T04:07:09;13.60;73.90
74657;DHT22;63185;45.642;13.764;2024-03-02T04:09:35;13.70;73.40
74657;DHT22;63185;45.642;13.764;2024-03-02T04:12:00;13.60;73.60
74657;DHT22;63185;45.642;13.764;2024-03-02T04:14:26;13.60;73.90
74657;DHT22;63185;45.642;13.764;2024-03-02T04:16:52;13.60;74.20
74657;DHT22;63185;45.642;13.764;2024-03-02T04:19:17;13.60;74.20
74657;DHT22;63185;45.642;13.764;2024-03-02T04:21:43;13.60;74.30
74657;DHT22;63185;45.642;13.764;2024-03-02T04:24:08;13.60;73.70
74657;DHT22;63185;45.642;13.764;2024-03-02T04:26:34;13.60;74.30
74657;DHT22;63185;45.642;13.764;2024-03-02T04:29:00;13.60;73.90
74657;DHT22;63185;45.642;13.764;2024-03-02T04:31:25;13.60;73.90
74657;DHT22;63185;45.642;13.764;2024-03-02T04:33:51;13.60;73.60
74657;DHT22;63185;45.642;13.764;2024-03-02T04:36:17;13.60;74.40
74657;DHT22;63185;45.642;13.764;2024-03-02T04:38:43;13.60;74.70
74657;DHT22;63185;45.642;13.764;2024-03-02T04:41:08;13.60;74.30
74657;DHT22;63185;45.642;13.764;2024-03-02T04:43:34;13.60;74.20
74657;DHT22;63185;45.642;13.764;2024-03-02T04:46:00;13.60;74.40
74657;DHT22;63185;45.642;13.764;2024-03-02T04:48:26;13.60;74.90
74657;DHT22;63185;45.642;13.764;2024-03-02T04:50:52;13.60;74.90
74657;DHT22;63185;45.642;13.764;2024-03-02T04:53:17;13.60;74.70
74657;DHT22;63185;45.642;13.764;2024-03-02T04:55:43;13.60;74.60
74657;DHT22;63185;45.642;13.764;2024-03-02T04:58:09;13.60;74.20
74657;DHT22;63185;45.642;13.764;2024-03-02T05:00:35;13.60;74.20
74657;DHT22;63185;45.642;13.764;2024-03-02T05:03:00;13.60;74.30
74657;DHT22;63185;45.642;13.764;2024-03-02T05:05:26;13.60;74.10
74657;DHT22;63185;45.642;13.764;2024-03-02T05:07:52;13.60;74.10
74657;DHT22;63185;45.642;13.764;2024-03-02T05:10:18;13.60;74.60
74657;DHT22;63185;45.642;13.764;2024-03-02T05:12:44;13.60;74.20
74657;DHT22;63185;45.642;13.764;2024-03-02T05:15:13;13.60;74.30
74657;DHT22;63185;45.642;13.764;2024-03-02T05:17:40;13.60;74.30
74657;DHT22;63185;45.642;13.764;2024-03-02T05:20:08;13.60;74.70
74657;DHT22;63185;45.642;13.764;2024-03-02T05:22:35;13.60;74.40
74657;DHT22;63185;45.642;13.764;2024-03-02T05:25:01;13.60;73.80
74657;DHT22;63185;45.642;13.764;2024-03-02T05:27:27;13.60;74.00
74657;DHT22;63185;45.642;13.764;2024-03-02T05:29:53;13.60;74.10
74657;DHT22;63185;45.642;13.764;2024-03-02T05:32:19;13.60;74.20
74657;DHT22;63185;45.642;13.764;2024-03-02T05:34:45;13.60;74.00
74657;DHT22;63185;45.642;13.764;2024-03-02T05:37:10;13.60;73.90
74657;DHT22;63185;45.642;13.764;2024-03-02T05:39:36;13.70;73.50
74657;DHT22;63185;45.642;13.764;2024-03-02T05:42:02;13.70;73.40
74657;DHT22;63185;45.642;13.764;2024-03-02T05:44:28;13.70;73.80
74657;DHT22;63185;45.642;13.764;2024-03-02T05:46:54;13.60;73.80
74657;DHT22;63185;45.642;13.764;2024-03-02T05:49:20;13.60;73.90
74657;DHT22;63185;45.642;13.764;2024-03-02T05:51:45;13.60;73.90
74657;DHT22;63185;45.642;13.764;2024-03-02T05:54:12;13.60;74.10
74657;DHT22;63185;45.642;13.764;2024-03-02T05:56:37;13.60;74.40
74657;DHT22;63185;45.642;13.764;2024-03-02T05:59:03;13.70;74.50
74657;DHT22;63185;45.642;13.764;2024-03-02T06:01:47;13.70;74.80
74657;DHT22;63185;45.642;13.764;2024-03-02T06:04:14;13.60;75.40
74657;DHT22;63185;45.642;13.764;2024-03-02T06:06:40;13.60;76.00
74657;DHT22;63185;45.642;13.764;2024-03-02T06:09:06;13.60;76.20
74657;DHT22;63185;45.642;13.764;2024-03-02T06:11:39;13.60;76.40
74657;DHT22;63185;45.642;13.764;2024-03-02T06:14:07;13.60;76.00
74657;DHT22;63185;45.642;13.764;2024-03-02T06:16:33;13.60;76.00
74657;DHT22;63185;45.642;13.764;2024-03-02T06:18:59;13.60;76.40
74657;DHT22;63185;45.642;13.764;2024-03-02T06:21:25;13.60;76.20
74657;DHT22;63185;45.642;13.764;2024-03-02T06:23:51;13.60;76.30
74657;DHT22;63185;45.642;13.764;2024-03-02T06:26:17;13.50;76.50
74657;DHT22;63185;45.642;13.764;2024-03-02T06:28:43;13.60;76.50
74657;DHT22;63185;45.642;13.764;2024-03-02T06:31:08;13.60;76.20
74657;DHT22;63185;45.642;13.764;2024-03-02T06:33:34;13.60;76.20
74657;DHT22;63185;45.642;13.764;2024-03-02T06:36:00;13.60;75.30
74657;DHT22;63185;45.642;13.764;2024-03-02T06:38:26;13.60;75.70
74657;DHT22;63185;45.642;13.764;2024-03-02T06:40:51;13.70;74.90
74657;DHT22;63185;45.642;13.764;2024-03-02T06:43:17;13.70;74.80
74657;DHT22;63185;45.642;13.764;2024-03-02T06:45:43;13.80;75.50
74657;DHT22;63185;45.642;13.764;2024-03-02T06:48:08;13.80;75.10
74657;DHT22;63185;45.642;13.764;2024-03-02T06:50:34;13.90;74.20
74657;DHT22;63185;45.642;13.764;2024-03-02T06:53:00;14.00;74.20
74657;DHT22;63185;45.642;13.764;2024-03-02T06:55:25;14.00;73.80
74657;DHT22;63185;45.642;13.764;2024-03-02T06:57:51;14.10;73.80
74657;DHT22;63185;45.642;13.764;2024-03-02T07:00:18;14.10;73.10
74657;DHT22;63185;45.642;13.764;2024-03-02T07:02:45;14.20;73.20
74657;DHT22;63185;45.642;13.764;2024-03-02T07:05:12;14.20;73.70
74657;DHT22;63185;45.642;13.764;2024-03-02T07:07:37;14.30;72.70
74657;DHT22;63185;45.642;13.764;2024-03-02T07:10:07;14.40;71.70
74657;DHT22;63185;45.642;13.764;2024-03-02T07:12:33;14.60;71.50
74657;DHT22;63185;45.642;13.764;2024-03-02T07:14:59;14.60;70.70
74657;DHT22;63185;45.642;13.764;2024-03-02T07:17:31;14.70;70.30
74657;DHT22;63185;45.642;13.764;2024-03-02T07:19:57;14.80;70.30
74657;DHT22;63185;45.642;13.764;2024-03-02T07:22:23;14.80;69.80
74657;DHT22;63185;45.642;13.764;2024-03-02T07:24:49;14.80;69.30
74657;DHT22;63185;45.642;13.764;2024-03-02T07:27:16;14.80;69.80
74657;DHT22;63185;45.642;13.764;2024-03-02T07:29:42;14.90;69.00
74657;DHT22;63185;45.642;13.764;2024-03-02T07:32:09;14.90;69.10
74657;DHT22;63185;45.642;13.764;2024-03-02T07:34:36;15.00;69.00
74657;DHT22;63185;45.642;13.764;2024-03-02T07:37:01;15.10;68.40
74657;DHT22;63185;45.642;13.764;2024-03-02T07:39:27;15.20;67.90
74657;DHT22;63185;45.642;13.764;2024-03-02T07:41:53;15.10;67.40
74657;DHT22;63185;45.642;13.764;2024-03-02T07:44:19;15.10;67.50
74657;DHT22;63185;45.642;13.764;2024-03-02T07:46:46;15.20;67.40
74657;DHT22;63185;45.642;13.764;2024-03-02T07:49:12;15.10;67.00
74657;DHT22;63185;45.642;13.764;2024-03-02T07:51:41;15.10;67.90
74657;DHT22;63185;45.642;13.764;2024-03-02T07:54:07;15.20;67.60
74657;DHT22;63185;45.642;13.764;2024-03-02T07:56:34;15.10;68.30
74657;DHT22;63185;45.642;13.764;2024-03-02T07:59:00;14.70;68.30
74657;DHT22;63185;45.642;13.764;2024-03-02T08:01:30;14.70;69.40
74657;DHT22;63185;45.642;13.764;2024-03-02T08:03:57;14.80;69.00
74657;DHT22;63185;45.642;13.764;2024-03-02T08:06:27;14.90;69.00
74657;DHT22;63185;45.642;13.764;2024-03-02T08:08:57;15.00;69.00
74657;DHT22;63185;45.642;13.764;2024-03-02T08:11:23;15.10;68.70
74657;DHT22;63185;45.642;13.764;2024-03-02T08:13:49;15.10;68.20
74657;DHT22;63185;45.642;13.764;2024-03-02T08:16:16;15.20;68.40
74657;DHT22;63185;45.642;13.764;2024-03-02T08:18:44;15.20;68.30
74657;DHT22;63185;45.642;13.764;2024-03-02T08:21:10;15.30;67.80
74657;DHT22;63185;45.642;13.764;2024-03-02T08:23:35;15.20;67.00
74657;DHT22;63185;45.642;13.764;2024-03-02T08:26:03;15.20;67.40
74657;DHT22;63185;45.642;13.764;2024-03-02T08:28:29;15.00;68.30
74657;DHT22;63185;45.642;13.764;2024-03-02T08:30:55;15.10;68.00
74657;DHT22;63185;45.642;13.764;2024-03-02T08:33:22;14.80;67.60
74657;DHT22;63185;45.642;13.764;2024-03-02T08:35:47;14.80;68.30
74657;DHT22;63185;45.642;13.764;2024-03-02T08:38:13;14.90;68.70
74657;DHT22;63185;45.642;13.764;2024-03-02T08:40:39;14.90;68.80
74657;DHT22;63185;45.642;13.764;2024-03-02T08:43:05;15.10;68.90
74657;DHT22;63185;45.642;13.764;2024-03-02T08:45:30;15.20;67.30
74657;DHT22;63185;45.642;13.764;2024-03-02T08:47:56;15.20;66.40
74657;DHT22;63185;45.642;13.764;2024-03-02T08:50:22;15.20;66.50
74657;DHT22;63185;45.642;13.764;2024-03-02T08:52:47;15.20;66.20
74657;DHT22;63185;45.642;13.764;2024-03-02T08:55:13;15.30;66.70
74657;DHT22;63185;45.642;13.764;2024-03-02T08:57:39;15.40;67.60
74657;DHT22;63185;45.642;13.764;2024-03-02T09:00:05;15.50;67.30
74657;DHT22;63185;45.642;13.764;2024-03-02T09:02:33;15.50;68.10
74657;DHT22;63185;45.642;13.764;2024-03-02T09:04:58;15.70;68.60
74657;DHT22;63185;45.642;13.764;2024-03-02T09:07:24;15.70;68.10
74657;DHT22;63185;45.642;13.764;2024-03-02T09:09:49;15.80;68.20
74657;DHT22;63185;45.642;13.764;2024-03-02T09:12:15;16.00;69.40
74657;DHT22;63185;45.642;13.764;2024-03-02T09:14:41;16.20;70.00
74657;DHT22;63185;45.642;13.764;2024-03-02T09:17:07;16.40;69.00
74657;DHT22;63185;45.642;13.764;2024-03-02T09:19:36;16.40;67.30
74657;DHT22;63185;45.642;13.764;2024-03-02T09:22:01;16.20;66.80
74657;DHT22;63185;45.642;13.764;2024-03-02T09:24:28;16.30;67.50
74657;DHT22;63185;45.642;13.764;2024-03-02T09:26:54;16.40;67.00
74657;DHT22;63185;45.642;13.764;2024-03-02T09:29:20;16.60;65.90
74657;DHT22;63185;45.642;13.764;2024-03-02T09:31:46;16.60;66.20
74657;DHT22;63185;45.642;13.764;2024-03-02T09:34:12;16.80;65.90
74657;DHT22;63185;45.642;13.764;2024-03-02T09:36:39;17.00;65.50
74657;DHT22;63185;45.642;13.764;2024-03-02T09:39:07;17.30;65.70
74657;DHT22;63185;45.642;13.764;2024-03-02T09:41:38;17.40;63.40
74657;DHT22;63185;45.642;13.764;2024-03-02T09:44:04;17.60;63.10
74657;DHT22;63185;45.642;13.764;2024-03-02T09:46:31;17.70;63.70
74657;DHT22;63185;45.642;13.764;2024-03-02T09:48:57;17.90;62.80
74657;DHT22;63185;45.642;13.764;2024-03-02T09:51:23;18.00;61.70
74657;DHT22;63185;45.642;13.764;2024-03-02T09:53:49;18.10;61.80
74657;DHT22;63185;45.642;13.764;2024-03-02T09:56:15;18.30;60.90
74657;DHT22;63185;45.642;13.764;2024-03-02T09:58:41;18.40;59.10
74657;DHT22;63185;45.642;13.764;2024-03-02T10:01:08;18.50;57.60
74657;DHT22;63185;45.642;13.764;2024-03-02T10:03:36;18.50;58.30
74657;DHT22;63185;45.642;13.764;2024-03-02T10:06:25;18.70;58.30
74657;DHT22;63185;45.642;13.764;2024-03-02T10:08:51;19.00;56.20
74657;DHT22;63185;45.642;13.764;2024-03-02T10:14:13;18.80;55.80
74657;DHT22;63185;45.642;13.764;2024-03-02T10:16:43;18.80;55.60
74657;DHT22;63185;45.642;13.764;2024-03-02T10:19:22;18.60;57.00
74657;DHT22;63185;45.642;13.764;2024-03-02T10:21:49;18.60;56.90
74657;DHT22;63185;45.642;13.764;2024-03-02T10:24:15;18.40;56.40
74657;DHT22;63185;45.642;13.764;2024-03-02T10:26:42;18.10;57.80
74657;DHT22;63185;45.642;13.764;2024-03-02T10:29:09;18.50;57.20
74657;DHT22;63185;45.642;13.764;2024-03-02T10:31:40;18.60;57.10
74657;DHT22;63185;45.642;13.764;2024-03-02T10:34:07;18.70;56.20
74657;DHT22;63185;45.642;13.764;2024-03-02T10:36:34;18.90;55.40
74657;DHT22;63185;45.642;13.764;2024-03-02T10:39:06;18.70;55.40
74657;DHT22;63185;45.642;13.764;2024-03-02T10:41:37;17.80;57.60
74657;DHT22;63185;45.642;13.764;2024-03-02T10:44:04;17.90;58.20
74657;DHT22;63185;45.642;13.764;2024-03-02T10:46:32;18.00;58.40
74657;DHT22;63185;45.642;13.764;2024-03-02T10:49:01;17.60;58.00
74657;DHT22;63185;45.642;13.764;2024-03-02T10:51:29;17.30;59.40
74657;DHT22;63185;45.642;13.764;2024-03-02T10:53:58;17.10;60.10
74657;DHT22;63185;45.642;13.764;2024-03-02T10:56:31;17.20;60.90
74657;DHT22;63185;45.642;13.764;2024-03-02T10:59:28;17.00;60.90
74657;DHT22;63185;45.642;13.764;2024-03-02T11:01:57;16.60;61.00
74657;DHT22;63185;45.642;13.764;2024-03-02T11:04:25;16.70;62.00
74657;DHT22;63185;45.642;13.764;2024-03-02T11:06:52;16.50;62.20
74657;DHT22;63185;45.642;13.764;2024-03-02T11:09:22;16.40;63.80
74657;DHT22;63185;45.642;13.764;2024-03-02T11:11:58;16.40;62.60
74657;DHT22;63185;45.642;13.764;2024-03-02T11:14:27;16.40;64.10
74657;DHT22;63185;45.642;13.764;2024-03-02T11:16:55;16.40;62.90
74657;DHT22;63185;45.642;13.764;2024-03-02T11:19:21;16.50;62.30
74657;DHT22;63185;45.642;13.764;2024-03-02T11:21:48;16.30;62.60
74657;DHT22;63185;45.642;13.764;2024-03-02T11:26:59;16.60;63.40
74657;DHT22;63185;45.642;13.764;2024-03-02T11:32:13;16.70;62.10
74657;DHT22;63185;45.642;13.764;2024-03-02T11:34:45;16.60;62.30
74657;DHT22;63185;45.642;13.764;2024-03-02T11:37:12;16.40;62.90
74657;DHT22;63185;45.642;13.764;2024-03-02T11:39:39;16.20;63.80
74657;DHT22;63185;45.642;13.764;2024-03-02T11:42:07;16.30;64.10
74657;DHT22;63185;45.642;13.764;2024-03-02T11:44:35;16.60;63.00
74657;DHT22;63185;45.642;13.764;2024-03-02T11:47:06;16.70;62.00
74657;DHT22;63185;45.642;13.764;2024-03-02T11:49:48;17.00;61.40
74657;DHT22;63185;45.642;13.764;2024-03-02T11:52:14;16.90;61.70
74657;DHT22;63185;45.642;13.764;2024-03-02T11:54:44;16.80;62.50
74657;DHT22;63185;45.642;13.764;2024-03-02T11:57:19;16.50;62.80
74657;DHT22;63185;45.642;13.764;2024-03-02T11:59:45;16.50;64.40
74657;DHT22;63185;45.642;13.764;2024-03-02T12:02:16;16.70;66.10
74657;DHT22;63185;45.642;13.764;2024-03-02T12:04:45;16.70;66.80
74657;DHT22;63185;45.642;13.764;2024-03-02T12:07:12;16.80;67.40
74657;DHT22;63185;45.642;13.764;2024-03-02T12:09:38;16.90;67.90
74657;DHT22;63185;45.642;13.764;2024-03-02T12:12:05;17.00;67.90
74657;DHT22;63185;45.642;13.764;2024-03-02T12:14:32;17.10;68.00
74657;DHT22;63185;45.642;13.764;2024-03-02T12:16:58;17.10;68.30
74657;DHT22;63185;45.642;13.764;2024-03-02T12:19:25;17.30;68.90
74657;DHT22;63185;45.642;13.764;2024-03-02T12:21:52;17.40;68.60
74657;DHT22;63185;45.642;13.764;2024-03-02T12:24:19;17.40;69.40
74657;DHT22;63185;45.642;13.764;2024-03-02T12:26:45;17.50;69.10
74657;DHT22;63185;45.642;13.764;2024-03-02T12:29:12;17.50;69.40
74657;DHT22;63185;45.642;13.764;2024-03-02T12:31:39;17.60;68.70
74657;DHT22;63185;45.642;13.764;2024-03-02T12:34:04;17.60;68.10
74657;DHT22;63185;45.642;13.764;2024-03-02T12:36:37;17.60;68.00
74657;DHT22;63185;45.642;13.764;2024-03-02T12:39:03;17.40;68.10
74657;DHT22;63185;45.642;13.764;2024-03-02T12:41:29;17.30;67.80
74657;DHT22;63185;45.642;13.764;2024-03-02T12:43:55;17.00;67.80
74657;DHT22;63185;45.642;13.764;2024-03-02T12:46:20;16.70;69.30
74657;DHT22;63185;45.642;13.764;2024-03-02T12:48:46;16.60;70.30
74657;DHT22;63185;45.642;13.764;2024-03-02T12:51:12;16.20;71.10
74657;DHT22;63185;45.642;13.764;2024-03-02T12:53:38;16.10;71.00
74657;DHT22;63185;45.642;13.764;2024-03-02T12:56:04;15.90;70.80
74657;DHT22;63185;45.642;13.764;2024-03-02T12:58:30;15.70;72.00
74657;DHT22;63185;45.642;13.764;2024-03-02T13:01:10;15.50;73.80
74657;DHT22;63185;45.642;13.764;2024-03-02T13:03:38;15.30;75.00
74657;DHT22;63185;45.642;13.764;2024-03-02T13:06:05;15.10;76.00
74657;DHT22;63185;45.642;13.764;2024-03-02T13:08:30;15.10;76.30
74657;DHT22;63185;45.642;13.764;2024-03-02T13:10:57;15.10;76.60
74657;DHT22;63185;45.642;13.764;2024-03-02T13:13:22;15.10;76.70
74657;DHT22;63185;45.642;13.764;2024-03-02T13:15:48;15.20;76.70
74657;DHT22;63185;45.642;13.764;2024-03-02T13:18:14;15.30;77.10
74657;DHT22;63185;45.642;13.764;2024-03-02T13:20:40;15.50;76.90
74657;DHT22;63185;45.642;13.764;2024-03-02T13:23:05;15.50;76.50
74657;DHT22;63185;45.642;13.764;2024-03-02T13:25:31;15.60;76.10
74657;DHT22;63185;45.642;13.764;2024-03-02T13:27:57;15.60;76.00
74657;DHT22;63185;45.642;13.764;2024-03-02T13:30:24;15.60;75.90
74657;DHT22;63185;45.642;13.764;2024-03-02T13:32:49;15.70;76.10
74657;DHT22;63185;45.642;13.764;2024-03-02T13:35:15;15.60;76.50
74657;DHT22;63185;45.642;13.764;2024-03-02T13:37:41;15.60;76.20
74657;DHT22;63185;45.642;13.764;2024-03-02T13:40:07;15.60;76.40
74657;DHT22;63185;45.642;13.764;2024-03-02T13:42:39;15.60;76.60
74657;DHT22;63185;45.642;13.764;2024-03-02T13:45:05;15.60;76.50
74657;DHT22;63185;45.642;13.764;2024-03-02T13:47:31;15.60;76.90
74657;DHT22;63185;45.642;13.764;2024-03-02T13:49:56;15.60;77.40
74657;DHT22;63185;45.642;13.764;2024-03-02T13:52:22;15.50;77.70
74657;DHT22;63185;45.642;13.764;2024-03-02T13:54:48;15.50;77.50
74657;DHT22;63185;45.642;13.764;2024-03-02T13:57:14;15.50;77.50
74657;DHT22;63185;45.642;13.764;2024-03-02T13:59:41;15.60;77.60
74657;DHT22;63185;45.642;13.764;2024-03-02T14:02:08;15.50;77.50
74657;DHT22;63185;45.642;13.764;2024-03-02T14:04:34;15.60;76.70
74657;DHT22;63185;45.642;13.764;2024-03-02T14:07:00;15.60;76.70
74657;DHT22;63185;45.642;13.764;2024-03-02T14:09:27;15.60;77.00
74657;DHT22;63185;45.642;13.764;2024-03-02T14:11:56;15.60;77.20
74657;DHT22;63185;45.642;13.764;2024-03-02T14:14:22;15.60;77.00
74657;DHT22;63185;45.642;13.764;2024-03-02T14:16:48;15.60;76.80
74657;DHT22;63185;45.642;13.764;2024-03-02T14:19:14;15.60;76.80
74657;DHT22;63185;45.642;13.764;2024-03-02T14:21:40;15.50;76.70
74657;DHT22;63185;45.642;13.764;2024-03-02T14:24:06;15.60;76.40
74657;DHT22;63185;45.642;13.764;2024-03-02T14:26:37;15.60;76.30
74657;DHT22;63185;45.642;13.764;2024-03-02T14:29:03;15.60;76.40
74657;DHT22;63185;45.642;13.764;2024-03-02T14:31:29;15.60;75.80
74657;DHT22;63185;45.642;13.764;2024-03-02T14:33:56;15.60;75.50
74657;DHT22;63185;45.642;13.764;2024-03-02T14:36:22;15.60;75.50
74657;DHT22;63185;45.642;13.764;2024-03-02T14:38:48;15.50;75.80
74657;DHT22;63185;45.642;13.764;2024-03-02T14:41:14;15.40;75.80
74657;DHT22;63185;45.642;13.764;2024-03-02T14:43:40;15.30;76.40
74657;DHT22;63185;45.642;13.764;2024-03-02T14:46:06;15.40;76.90
74657;DHT22;63185;45.642;13.764;2024-03-02T14:48:38;15.40;76.40
74657;DHT22;63185;45.642;13.764;2024-03-02T14:51:04;15.50;76.50
74657;DHT22;63185;45.642;13.764;2024-03-02T14:53:30;15.50;76.60
74657;DHT22;63185;45.642;13.764;2024-03-02T14:55:56;15.50;76.50
74657;DHT22;63185;45.642;13.764;2024-03-02T14:58:21;15.50;76.20
74657;DHT22;63185;45.642;13.764;2024-03-02T15:00:47;15.50;76.80
74657;DHT22;63185;45.642;13.764;2024-03-02T15:03:13;15.40;76.90
74657;DHT22;63185;45.642;13.764;2024-03-02T15:05:39;15.40;76.90
74657;DHT22;63185;45.642;13.764;2024-03-02T15:08:05;15.30;77.20
74657;DHT22;63185;45.642;13.764;2024-03-02T15:10:31;15.20;78.10
74657;DHT22;63185;45.642;13.764;2024-03-02T15:13:00;15.10;78.40
74657;DHT22;63185;45.642;13.764;2024-03-02T15:15:26;14.90;78.40
74657;DHT22;63185;45.642;13.764;2024-03-02T15:17:52;14.90;78.80
74657;DHT22;63185;45.642;13.764;2024-03-02T15:20:18;14.80;79.20
74657;DHT22;63185;45.642;13.764;2024-03-02T15:22:45;14.80;79.30
74657;DHT22;63185;45.642;13.764;2024-03-02T15:25:11;14.80;78.80